sensor_id;sensor_type;location;lat;lon;timestamp;temperature;humidity
71039;SHT30;58692;43.212;27.908;2022-09-02T00:01:32;24.18;64.34
71039;SHT30;58692;43.212;27.908;2022-09-02T00:04:02;24.16;64.41
71039;SHT30;58692;43.212;27.908;2022-09-02T00:06:28;24.13;64.33
71039;SHT30;58692;43.212;27.908;2022-09-02T00:08:55;24.16;64.38
71039;SHT30;58692;43.212;27.908;2022-09-02T00:11:23;24.16;64.30
71039;SHT30;58692;43.212;27.908;2022-09-02T00:13:50;24.17;64.25
71039;SHT30;58692;43.212;27.908;2022-09-02T00:16:16;24.14;64.10
71039;SHT30;58692;43.212;27.908;2022-09-02T00:18:42;24.16;64.21
71039;SHT30;58692;43.212;27.908;2022-09-02T00:21:10;24.18;63.95
71039;SHT30;58692;43.212;27.908;2022-09-02T00:23:38;24.17;64.00
71039;SHT30;58692;43.212;27.908;2022-09-02T00:26:03;24.18;63.84
71039;SHT30;58692;43.212;27.908;2022-09-02T00:28:29;24.18;63.72
71039;SHT30;58692;43.212;27.908;2022-09-02T00:30:55;24.02;64.07
71039;SHT30;58692;43.212;27.908;2022-09-02T00:33:20;23.99;64.14
71039;SHT30;58692;43.212;27.908;2022-09-02T00:35:46;24.06;63.88
71039;SHT30;58692;43.212;27.908;2022-09-02T00:38:11;24.12;63.84
71039;SHT30;58692;43.212;27.908;2022-09-02T00:40:38;24.14;63.74
71039;SHT30;58692;43.212;27.908;2022-09-02T00:43:07;24.14;63.53
71039;SHT30;58692;43.212;27.908;2022-09-02T00:45:34;24.18;63.41
71039;SHT30;58692;43.212;27.908;2022-09-02T00:48:00;24.16;63.48
71039;SHT30;58692;43.212;27.908;2022-09-02T00:50:30;23.99;63.82
71039;SHT30;58692;43.212;27.908;2022-09-02T00:53:02;23.99;63.85
71039;SHT30;58692;43.212;27.908;2022-09-02T00:55:33;23.93;64.05
71039;SHT30;58692;43.212;27.908;2022-09-02T00:58:03;23.86;64.18
71039;SHT30;58692;43.212;27.908;2022-09-02T01:00:33;23.89;64.25
71039;SHT30;58692;43.212;27.908;2022-09-02T01:03:03;23.86;64.24
71039;SHT30;58692;43.212;27.908;2022-09-02T01:05:34;23.86;64.20
71039;SHT30;58692;43.212;27.908;2022-09-02T01:08:01;23.94;64.12
71039;SHT30;58692;43.212;27.908;2022-09-02T01:10:30;23.97;64.01
71039;SHT30;58692;43.212;27.908;2022-09-02T01:13:02;23.97;63.94
71039;SHT30;58692;43.212;27.908;2022-09-02T01:15:34;23.94;64.03
71039;SHT30;58692;43.212;27.908;2022-09-02T01:18:03;23.94;64.09
71039;SHT30;58692;43.212;27.908;2022-09-02T01:20:29;23.92;64.21
71039;SHT30;58692;43.212;27.908;2022-09-02T01:22:55;23.94;64.09
71039;SHT30;58692;43.212;27.908;2022-09-02T01:25:25;23.99;63.81
71039;SHT30;58692;43.212;27.908;2022-09-02T01:27:52;23.99;63.93
71039;SHT30;58692;43.212;27.908;2022-09-02T01:30:22;23.96;63.94
71039;SHT30;58692;43.212;27.908;2022-09-02T01:32:49;23.92;63.99
71039;SHT30;58692;43.212;27.908;2022-09-02T01:35:15;23.84;64.18
71039;SHT30;58692;43.212;27.908;2022-09-02T01:37:41;23.82;64.27
71039;SHT30;58692;43.212;27.908;2022-09-02T01:40:10;23.83;64.31
71039;SHT30;58692;43.212;27.908;2022-09-02T01:42:36;23.82;64.33
71039;SHT30;58692;43.212;27.908;2022-09-02T01:45:04;23.77;64.51
71039;SHT30;58692;43.212;27.908;2022-09-02T01:47:30;23.76;64.55
71039;SHT30;58692;43.212;27.908;2022-09-02T01:49:57;23.76;64.59
71039;SHT30;58692;43.212;27.908;2022-09-02T01:52:24;23.80;64.57
71039;SHT30;58692;43.212;27.908;2022-09-02T01:54:51;23.74;64.94
71039;SHT30;58692;43.212;27.908;2022-09-02T01:57:16;23.69;65.31
71039;SHT30;58692;43.212;27.908;2022-09-02T01:59:42;23.73;65.23
71039;SHT30;58692;43.212;27.908;2022-09-02T02:02:09;23.72;65.58
71039;SHT30;58692;43.212;27.908;2022-09-02T02:04:34;23.69;65.64
71039;SHT30;58692;43.212;27.908;2022-09-02T02:07:00;23.76;65.74
71039;SHT30;58692;43.212;27.908;2022-09-02T02:09:26;23.72;65.99
71039;SHT30;58692;43.212;27.908;2022-09-02T02:11:51;23.74;65.94
71039;SHT30;58692;43.212;27.908;2022-09-02T02:14:17;23.73;66.14
71039;SHT30;58692;43.212;27.908;2022-09-02T02:16:44;23.74;66.23
71039;SHT30;58692;43.212;27.908;2022-09-02T02:19:09;23.77;66.26
71039;SHT30;58692;43.212;27.908;2022-09-02T02:21:35;23.66;66.56
71039;SHT30;58692;43.212;27.908;2022-09-02T02:24:00;23.65;66.74
71039;SHT30;58692;43.212;27.908;2022-09-02T02:26:28;23.70;66.80
71039;SHT30;58692;43.212;27.908;2022-09-02T02:28:53;23.72;66.88
71039;SHT30;58692;43.212;27.908;2022-09-02T02:31:19;23.77;66.76
71039;SHT30;58692;43.212;27.908;2022-09-02T02:33:45;23.83;66.84
71039;SHT30;58692;43.212;27.908;2022-09-02T02:36:12;23.86;66.96
71039;SHT30;58692;43.212;27.908;2022-09-02T02:38:39;23.86;67.12
71039;SHT30;58692;43.212;27.908;2022-09-02T02:41:06;23.86;67.20
71039;SHT30;58692;43.212;27.908;2022-09-02T02:43:33;23.89;67.35
71039;SHT30;58692;43.212;27.908;2022-09-02T02:45:59;23.83;67.38
71039;SHT30;58692;43.212;27.908;2022-09-02T02:48:25;23.86;67.53
71039;SHT30;58692;43.212;27.908;2022-09-02T02:50:50;23.89;67.39
71039;SHT30;58692;43.212;27.908;2022-09-02T02:53:16;23.90;67.38
71039;SHT30;58692;43.212;27.908;2022-09-02T02:55:42;23.89;67.49
71039;SHT30;58692;43.212;27.908;2022-09-02T02:58:08;23.86;67.53
71039;SHT30;58692;43.212;27.908;2022-09-02T03:00:34;23.89;67.59
71039;SHT30;58692;43.212;27.908;2022-09-02T03:03:05;23.87;67.76
71039;SHT30;58692;43.212;27.908;2022-09-02T03:05:31;23.84;67.85
71039;SHT30;58692;43.212;27.908;2022-09-02T03:07:58;23.87;67.86
71039;SHT30;58692;43.212;27.908;2022-09-02T03:10:23;23.87;67.94
71039;SHT30;58692;43.212;27.908;2022-09-02T03:12:50;23.97;67.86
71039;SHT30;58692;43.212;27.908;2022-09-02T03:15:17;23.92;68.02
71039;SHT30;58692;43.212;27.908;2022-09-02T03:17:44;23.89;68.35
71039;SHT30;58692;43.212;27.908;2022-09-02T03:20:10;23.93;68.22
71039;SHT30;58692;43.212;27.908;2022-09-02T03:22:36;23.92;68.45
71039;SHT30;58692;43.212;27.908;2022-09-02T03:25:05;23.94;68.55
71039;SHT30;58692;43.212;27.908;2022-09-02T03:27:31;23.94;68.69
71039;SHT30;58692;43.212;27.908;2022-09-02T03:29:59;24.03;68.55
71039;SHT30;58692;43.212;27.908;2022-09-02T03:32:24;24.07;68.47
71039;SHT30;58692;43.212;27.908;2022-09-02T03:34:50;23.96;68.73
71039;SHT30;58692;43.212;27.908;2022-09-02T03:37:15;23.99;68.75
71039;SHT30;58692;43.212;27.908;2022-09-02T03:39:41;24.00;68.72
71039;SHT30;58692;43.212;27.908;2022-09-02T03:42:07;23.99;68.85
71039;SHT30;58692;43.212;27.908;2022-09-02T03:44:32;24.06;68.73
71039;SHT30;58692;43.212;27.908;2022-09-02T03:46:59;24.04;68.73
71039;SHT30;58692;43.212;27.908;2022-09-02T03:49:24;24.06;68.92
71039;SHT30;58692;43.212;27.908;2022-09-02T03:51:51;24.06;69.03
71039;SHT30;58692;43.212;27.908;2022-09-02T03:54:17;24.02;69.13
71039;SHT30;58692;43.212;27.908;2022-09-02T03:56:42;24.06;69.12
71039;SHT30;58692;43.212;27.908;2022-09-02T03:59:08;24.03;69.24
71039;SHT30;58692;43.212;27.908;2022-09-02T04:01:34;24.10;69.07
71039;SHT30;58692;43.212;27.908;2022-09-02T04:04:00;24.13;69.05
71039;SHT30;58692;43.212;27.908;2022-09-02T04:06:26;24.16;69.13
71039;SHT30;58692;43.212;27.908;2022-09-02T04:08:52;24.16;69.21
71039;SHT30;58692;43.212;27.908;2022-09-02T04:11:20;24.18;69.38
71039;SHT30;58692;43.212;27.908;2022-09-02T04:13:48;24.18;69.32
71039;SHT30;58692;43.212;27.908;2022-09-02T04:16:16;24.25;69.21
71039;SHT30;58692;43.212;27.908;2022-09-02T04:18:43;24.38;69.00
71039;SHT30;58692;43.212;27.908;2022-09-02T04:21:09;24.60;68.34
71039;SHT30;58692;43.212;27.908;2022-09-02T04:23:35;24.81;67.76
71039;SHT30;58692;43.212;27.908;2022-09-02T04:26:07;25.11;66.90
71039;SHT30;58692;43.212;27.908;2022-09-02T04:28:33;24.88;67.45
71039;SHT30;58692;43.212;27.908;2022-09-02T04:31:04;25.19;66.67
71039;SHT30;58692;43.212;27.908;2022-09-02T04:33:30;25.54;65.72
71039;SHT30;58692;43.212;27.908;2022-09-02T04:35:55;25.80;64.95
71039;SHT30;58692;43.212;27.908;2022-09-02T04:38:21;26.13;63.90
71039;SHT30;58692;43.212;27.908;2022-09-02T04:40:46;26.47;62.51
71039;SHT30;58692;43.212;27.908;2022-09-02T04:43:12;26.69;61.52
71039;SHT30;58692;43.212;27.908;2022-09-02T04:45:42;27.07;60.36
71039;SHT30;58692;43.212;27.908;2022-09-02T04:48:09;27.33;59.27
71039;SHT30;58692;43.212;27.908;2022-09-02T04:50:36;27.57;58.39
71039;SHT30;58692;43.212;27.908;2022-09-02T04:53:03;28.01;57.43
71039;SHT30;58692;43.212;27.908;2022-09-02T04:55:28;27.81;57.60
71039;SHT30;58692;43.212;27.908;2022-09-02T04:57:54;27.85;57.54
71039;SHT30;58692;43.212;27.908;2022-09-02T05:00:20;27.77;57.96
71039;SHT30;58692;43.212;27.908;2022-09-02T05:02:46;28.01;57.19
71039;SHT30;58692;43.212;27.908;2022-09-02T05:05:11;27.81;57.17
71039;SHT30;58692;43.212;27.908;2022-09-02T05:07:37;28.14;56.61
71039;SHT30;58692;43.212;27.908;2022-09-02T05:10:04;28.46;56.03
71039;SHT30;58692;43.212;27.908;2022-09-02T05:12:32;28.41;56.06
71039;SHT30;58692;43.212;27.908;2022-09-02T05:14:59;28.41;56.32
71039;SHT30;58692;43.212;27.908;2022-09-02T05:17:26;28.66;55.88
71039;SHT30;58692;43.212;27.908;2022-09-02T05:19:52;28.42;56.62
71039;SHT30;58692;43.212;27.908;2022-09-02T05:22:18;28.52;56.47
71039;SHT30;58692;43.212;27.908;2022-09-02T05:24:44;28.78;56.13
71039;SHT30;58692;43.212;27.908;2022-09-02T05:27:10;28.69;56.35
71039;SHT30;58692;43.212;27.908;2022-09-02T05:29:36;28.41;57.36
71039;SHT30;58692;43.212;27.908;2022-09-02T05:32:03;28.15;58.54
71039;SHT30;58692;43.212;27.908;2022-09-02T05:34:29;28.09;58.65
71039;SHT30;58692;43.212;27.908;2022-09-02T05:36:55;27.57;59.88
71039;SHT30;58692;43.212;27.908;2022-09-02T05:39:21;28.11;58.73
71039;SHT30;58692;43.212;27.908;2022-09-02T05:41:46;28.04;58.98
71039;SHT30;58692;43.212;27.908;2022-09-02T05:44:13;28.65;57.62
71039;SHT30;58692;43.212;27.908;2022-09-02T05:46:38;29.11;56.46
71039;SHT30;58692;43.212;27.908;2022-09-02T05:49:04;29.38;55.77
71039;SHT30;58692;43.212;27.908;2022-09-02T05:51:44;29.44;55.29
71039;SHT30;58692;43.212;27.908;2022-09-02T05:54:21;29.20;56.29
71039;SHT30;58692;43.212;27.908;2022-09-02T05:56:55;29.17;56.57
71039;SHT30;58692;43.212;27.908;2022-09-02T05:59:22;28.97;57.06
71039;SHT30;58692;43.212;27.908;2022-09-02T06:01:49;28.49;58.43
71039;SHT30;58692;43.212;27.908;2022-09-02T06:04:15;29.10;57.18
71039;SHT30;58692;43.212;27.908;2022-09-02T06:06:42;28.59;58.28
71039;SHT30;58692;43.212;27.908;2022-09-02T06:09:09;28.80;57.89
71039;SHT30;58692;43.212;27.908;2022-09-02T06:11:38;29.07;57.55
71039;SHT30;58692;43.212;27.908;2022-09-02T06:14:05;28.75;58.21
71039;SHT30;58692;43.212;27.908;2022-09-02T06:16:33;29.57;56.36
71039;SHT30;58692;43.212;27.908;2022-09-02T06:19:15;28.92;57.90
71039;SHT30;58692;43.212;27.908;2022-09-02T06:21:40;28.89;58.03
71039;SHT30;58692;43.212;27.908;2022-09-02T06:24:08;29.27;57.49
71039;SHT30;58692;43.212;27.908;2022-09-02T06:26:36;29.51;56.70
71039;SHT30;58692;43.212;27.908;2022-09-02T06:29:03;29.65;56.69
71039;SHT30;58692;43.212;27.908;2022-09-02T06:31:29;29.16;58.07
71039;SHT30;58692;43.212;27.908;2022-09-02T06:33:57;29.37;57.52
71039;SHT30;58692;43.212;27.908;2022-09-02T06:36:25;29.29;57.87
71039;SHT30;58692;43.212;27.908;2022-09-02T06:38:53;29.49;57.33
71039;SHT30;58692;43.212;27.908;2022-09-02T06:41:24;29.55;57.24
71039;SHT30;58692;43.212;27.908;2022-09-02T06:43:55;30.33;55.68
71039;SHT30;58692;43.212;27.908;2022-09-02T06:46:24;29.53;57.87
71039;SHT30;58692;43.212;27.908;2022-09-02T06:48:50;30.11;56.77
71039;SHT30;58692;43.212;27.908;2022-09-02T06:51:19;30.16;56.53
71039;SHT30;58692;43.212;27.908;2022-09-02T06:53:45;30.80;55.12
71039;SHT30;58692;43.212;27.908;2022-09-02T06:56:11;30.31;56.37
71039;SHT30;58692;43.212;27.908;2022-09-02T06:58:37;29.27;59.35
71039;SHT30;58692;43.212;27.908;2022-09-02T07:01:03;30.16;57.19
71039;SHT30;58692;43.212;27.908;2022-09-02T07:03:35;30.53;56.53
71039;SHT30;58692;43.212;27.908;2022-09-02T07:06:16;30.88;55.79
71039;SHT30;58692;43.212;27.908;2022-09-02T07:08:42;30.79;55.88
71039;SHT30;58692;43.212;27.908;2022-09-02T07:11:24;30.22;56.70
71039;SHT30;58692;43.212;27.908;2022-09-02T07:13:50;30.22;57.08
71039;SHT30;58692;43.212;27.908;2022-09-02T07:16:16;30.37;57.22
71039;SHT30;58692;43.212;27.908;2022-09-02T07:18:42;31.27;55.14
71039;SHT30;58692;43.212;27.908;2022-09-02T07:21:10;31.81;53.86
71039;SHT30;58692;43.212;27.908;2022-09-02T07:23:36;29.86;58.69
71039;SHT30;58692;43.212;27.908;2022-09-02T07:26:02;29.33;60.69
71039;SHT30;58692;43.212;27.908;2022-09-02T07:28:29;29.70;59.16
71039;SHT30;58692;43.212;27.908;2022-09-02T07:30:55;29.75;59.88
71039;SHT30;58692;43.212;27.908;2022-09-02T07:33:21;29.57;60.28
71039;SHT30;58692;43.212;27.908;2022-09-02T07:35:48;29.54;60.93
71039;SHT30;58692;43.212;27.908;2022-09-02T07:38:14;29.62;61.09
71039;SHT30;58692;43.212;27.908;2022-09-02T07:40:40;29.60;60.55
71039;SHT30;58692;43.212;27.908;2022-09-02T07:43:08;29.51;60.89
71039;SHT30;58692;43.212;27.908;2022-09-02T07:45:35;30.18;58.07
71039;SHT30;58692;43.212;27.908;2022-09-02T07:48:02;30.19;57.84
71039;SHT30;58692;43.212;27.908;2022-09-02T07:50:32;30.70;57.02
71039;SHT30;58692;43.212;27.908;2022-09-02T07:52:59;30.86;56.63
71039;SHT30;58692;43.212;27.908;2022-09-02T07:55:25;30.83;55.37
71039;SHT30;58692;43.212;27.908;2022-09-02T07:57:51;31.01;55.02
71039;SHT30;58692;43.212;27.908;2022-09-02T08:00:19;31.51;54.13
71039;SHT30;58692;43.212;27.908;2022-09-02T08:02:47;30.59;56.28
71039;SHT30;58692;43.212;27.908;2022-09-02T08:05:13;29.67;57.65
71039;SHT30;58692;43.212;27.908;2022-09-02T08:07:39;30.31;56.69
71039;SHT30;58692;43.212;27.908;2022-09-02T08:10:06;30.69;56.43
71039;SHT30;58692;43.212;27.908;2022-09-02T08:12:35;30.37;57.50
71039;SHT30;58692;43.212;27.908;2022-09-02T08:15:02;30.49;56.70
71039;SHT30;58692;43.212;27.908;2022-09-02T08:17:28;30.93;55.07
71039;SHT30;58692;43.212;27.908;2022-09-02T08:19:53;30.18;56.78
71039;SHT30;58692;43.212;27.908;2022-09-02T08:22:19;29.54;59.02
71039;SHT30;58692;43.212;27.908;2022-09-02T08:24:44;29.27;59.66
71039;SHT30;58692;43.212;27.908;2022-09-02T08:27:10;28.59;61.65
71039;SHT30;58692;43.212;27.908;2022-09-02T08:29:35;28.86;61.39
71039;SHT30;58692;43.212;27.908;2022-09-02T08:32:01;28.78;61.67
71039;SHT30;58692;43.212;27.908;2022-09-02T08:34:27;28.93;61.77
71039;SHT30;58692;43.212;27.908;2022-09-02T08:36:53;28.63;61.39
71039;SHT30;58692;43.212;27.908;2022-09-02T08:39:19;28.65;61.39
71039;SHT30;58692;43.212;27.908;2022-09-02T08:42:08;28.09;63.98
71039;SHT30;58692;43.212;27.908;2022-09-02T08:44:39;28.42;62.48
71039;SHT30;58692;43.212;27.908;2022-09-02T08:47:10;28.55;61.96
71039;SHT30;58692;43.212;27.908;2022-09-02T08:49:41;29.65;59.52
71039;SHT30;58692;43.212;27.908;2022-09-02T08:52:07;30.29;56.43
71039;SHT30;58692;43.212;27.908;2022-09-02T08:54:50;30.80;55.74
71039;SHT30;58692;43.212;27.908;2022-09-02T08:57:17;31.54;54.36
71039;SHT30;58692;43.212;27.908;2022-09-02T08:59:42;30.80;55.86
71039;SHT30;58692;43.212;27.908;2022-09-02T09:07:52;29.82;58.73
71039;SHT30;58692;43.212;27.908;2022-09-02T09:10:24;28.96;60.42
71039;SHT30;58692;43.212;27.908;2022-09-02T09:13:25;28.46;61.20
71039;SHT30;58692;43.212;27.908;2022-09-02T09:15:58;28.55;61.56
71039;SHT30;58692;43.212;27.908;2022-09-02T09:18:38;28.38;61.79
71039;SHT30;58692;43.212;27.908;2022-09-02T09:21:06;28.72;61.04
71039;SHT30;58692;43.212;27.908;2022-09-02T09:23:33;29.75;58.72
71039;SHT30;58692;43.212;27.908;2022-09-02T09:26:16;30.35;57.30
71039;SHT30;58692;43.212;27.908;2022-09-02T09:28:45;30.98;56.02
71039;SHT30;58692;43.212;27.908;2022-09-02T09:31:16;31.69;54.06
71039;SHT30;58692;43.212;27.908;2022-09-02T09:36:43;30.72;56.86
71039;SHT30;58692;43.212;27.908;2022-09-02T09:44:37;30.80;56.20
71039;SHT30;58692;43.212;27.908;2022-09-02T09:47:06;31.23;55.20
71039;SHT30;58692;43.212;27.908;2022-09-02T09:49:32;31.33;55.02
71039;SHT30;58692;43.212;27.908;2022-09-02T09:51:58;31.45;55.26
71039;SHT30;58692;43.212;27.908;2022-09-02T09:54:26;30.84;56.82
71039;SHT30;58692;43.212;27.908;2022-09-02T09:56:54;31.49;55.68
71039;SHT30;58692;43.212;27.908;2022-09-02T09:59:39;31.79;54.74
71039;SHT30;58692;43.212;27.908;2022-09-02T10:02:19;31.67;54.69
71039;SHT30;58692;43.212;27.908;2022-09-02T10:04:45;30.36;58.15
71039;SHT30;58692;43.212;27.908;2022-09-02T10:07:13;30.51;57.36
71039;SHT30;58692;43.212;27.908;2022-09-02T10:09:39;30.01;58.25
71039;SHT30;58692;43.212;27.908;2022-09-02T10:12:11;31.58;54.87
71039;SHT30;58692;43.212;27.908;2022-09-02T10:14:45;32.32;53.45
71039;SHT30;58692;43.212;27.908;2022-09-02T10:17:26;32.48;52.92
71039;SHT30;58692;43.212;27.908;2022-09-02T10:20:05;32.25;53.41
71039;SHT30;58692;43.212;27.908;2022-09-02T10:25:15;32.36;52.99
71039;SHT30;58692;43.212;27.908;2022-09-02T10:28:26;32.25;53.23
71039;SHT30;58692;43.212;27.908;2022-09-02T10:34:01;32.08;53.96
71039;SHT30;58692;43.212;27.908;2022-09-02T10:36:33;32.48;52.47
71039;SHT30;58692;43.212;27.908;2022-09-02T10:41:50;31.95;53.81
71039;SHT30;58692;43.212;27.908;2022-09-02T10:44:26;32.12;53.02
71039;SHT30;58692;43.212;27.908;2022-09-02T10:58:05;32.66;52.13
71039;SHT30;58692;43.212;27.908;2022-09-02T11:00:34;31.33;54.15
71039;SHT30;58692;43.212;27.908;2022-09-02T11:06:08;31.79;53.77
71039;SHT30;58692;43.212;27.908;2022-09-02T11:08:47;31.64;53.32
71039;SHT30;58692;43.212;27.908;2022-09-02T11:11:19;32.69;51.18
71039;SHT30;58692;43.212;27.908;2022-09-02T11:16:40;30.02;57.46
71039;SHT30;58692;43.212;27.908;2022-09-02T11:19:17;29.88;58.60
71039;SHT30;58692;43.212;27.908;2022-09-02T11:21:57;29.43;59.84
71039;SHT30;58692;43.212;27.908;2022-09-02T11:27:00;28.75;62.80
71039;SHT30;58692;43.212;27.908;2022-09-02T11:29:37;28.45;64.26
71039;SHT30;58692;43.212;27.908;2022-09-02T11:32:22;28.41;64.74
71039;SHT30;58692;43.212;27.908;2022-09-02T11:34:53;28.42;65.11
71039;SHT30;58692;43.212;27.908;2022-09-02T11:40:09;29.04;64.25
71039;SHT30;58692;43.212;27.908;2022-09-02T11:53:37;30.04;62.24
71039;SHT30;58692;43.212;27.908;2022-09-02T11:56:13;30.72;60.23
71039;SHT30;58692;43.212;27.908;2022-09-02T11:58:44;30.45;61.37
71039;SHT30;58692;43.212;27.908;2022-09-02T12:03:58;30.13;62.10
71039;SHT30;58692;43.212;27.908;2022-09-02T12:06:25;30.39;61.31
71039;SHT30;58692;43.212;27.908;2022-09-02T12:11:36;30.21;59.37
71039;SHT30;58692;43.212;27.908;2022-09-02T12:14:05;30.47;57.09
71039;SHT30;58692;43.212;27.908;2022-09-02T12:21:24;28.21;61.88
71039;SHT30;58692;43.212;27.908;2022-09-02T12:26:19;28.65;61.40
71039;SHT30;58692;43.212;27.908;2022-09-02T12:28:46;28.96;61.75
71039;SHT30;58692;43.212;27.908;2022-09-02T12:31:16;28.72;63.17
71039;SHT30;58692;43.212;27.908;2022-09-02T12:33:45;28.82;63.46
71039;SHT30;58692;43.212;27.908;2022-09-02T12:36:46;28.72;63.58
71039;SHT30;58692;43.212;27.908;2022-09-02T12:47:58;28.01;64.37
71039;SHT30;58692;43.212;27.908;2022-09-02T12:50:31;27.78;64.60
71039;SHT30;58692;43.212;27.908;2022-09-02T12:53:28;27.83;64.49
71039;SHT30;58692;43.212;27.908;2022-09-02T12:55:59;28.05;63.43
71039;SHT30;58692;43.212;27.908;2022-09-02T12:58:28;27.78;62.85
71039;SHT30;58692;43.212;27.908;2022-09-02T13:06:51;27.93;62.45
71039;SHT30;58692;43.212;27.908;2022-09-02T13:15:20;28.00;60.23
71039;SHT30;58692;43.212;27.908;2022-09-02T13:28:59;27.73;58.38
71039;SHT30;58692;43.212;27.908;2022-09-02T13:31:28;27.95;56.22
71039;SHT30;58692;43.212;27.908;2022-09-02T13:36:27;27.91;54.21
71039;SHT30;58692;43.212;27.908;2022-09-02T13:38:53;28.01;54.12
71039;SHT30;58692;43.212;27.908;2022-09-02T13:41:28;28.28;53.76
71039;SHT30;58692;43.212;27.908;2022-09-02T13:44:10;28.28;54.69
71039;SHT30;58692;43.212;27.908;2022-09-02T13:46:45;28.14;56.76
71039;SHT30;58692;43.212;27.908;2022-09-02T13:49:22;28.22;58.48
71039;SHT30;58692;43.212;27.908;2022-09-02T13:51:50;28.00;60.94
71039;SHT30;58692;43.212;27.908;2022-09-02T13:54:29;27.81;62.52
71039;SHT30;58692;43.212;27.908;2022-09-02T13:56:58;27.93;62.93
71039;SHT30;58692;43.212;27.908;2022-09-02T13:59:36;27.91;64.16
71039;SHT30;58692;43.212;27.908;2022-09-02T14:05:14;27.80;65.58
71039;SHT30;58692;43.212;27.908;2022-09-02T14:07:44;27.60;66.53
71039;SHT30;58692;43.212;27.908;2022-09-02T14:10:15;27.49;67.23
71039;SHT30;58692;43.212;27.908;2022-09-02T14:12:41;27.50;67.52
71039;SHT30;58692;43.212;27.908;2022-09-02T14:15:10;27.20;68.29
71039;SHT30;58692;43.212;27.908;2022-09-02T14:17:37;27.30;68.16
71039;SHT30;58692;43.212;27.908;2022-09-02T14:20:19;27.06;69.72
71039;SHT30;58692;43.212;27.908;2022-09-02T14:23:00;27.06;69.97
71039;SHT30;58692;43.212;27.908;2022-09-02T14:25:31;27.30;69.53
71039;SHT30;58692;43.212;27.908;2022-09-02T14:27:59;26.86;71.06
71039;SHT30;58692;43.212;27.908;2022-09-02T14:30:32;26.99;70.85
71039;SHT30;58692;43.212;27.908;2022-09-02T14:33:14;26.79;70.17
71039;SHT30;58692;43.212;27.908;2022-09-02T14:35:40;26.81;70.18
71039;SHT30;58692;43.212;27.908;2022-09-02T14:38:05;26.68;70.99
71039;SHT30;58692;43.212;27.908;2022-09-02T14:40:33;26.47;72.21
71039;SHT30;58692;43.212;27.908;2022-09-02T14:43:00;26.41;72.17
71039;SHT30;58692;43.212;27.908;2022-09-02T14:47:52;26.67;70.68
71039;SHT30;58692;43.212;27.908;2022-09-02T14:50:21;26.52;70.30
71039;SHT30;58692;43.212;27.908;2022-09-02T14:52:49;26.55;70.03
71039;SHT30;58692;43.212;27.908;2022-09-02T14:55:50;26.63;69.94
71039;SHT30;58692;43.212;27.908;2022-09-02T14:58:18;26.61;70.09
71039;SHT30;58692;43.212;27.908;2022-09-02T15:00:47;26.63;70.14
71039;SHT30;58692;43.212;27.908;2022-09-02T15:03:17;26.73;70.16
71039;SHT30;58692;43.212;27.908;2022-09-02T15:05:43;26.51;70.38
71039;SHT30;58692;43.212;27.908;2022-09-02T15:08:09;26.32;70.84
71039;SHT30;58692;43.212;27.908;2022-09-02T15:10:36;26.48;70.26
71039;SHT30;58692;43.212;27.908;2022-09-02T15:13:03;26.35;69.97
71039;SHT30;58692;43.212;27.908;2022-09-02T15:15:29;26.27;70.32
71039;SHT30;58692;43.212;27.908;2022-09-02T15:17:54;26.21;70.60
71039;SHT30;58692;43.212;27.908;2022-09-02T15:20:20;26.10;71.57
71039;SHT30;58692;43.212;27.908;2022-09-02T15:22:46;26.05;71.76
71039;SHT30;58692;43.212;27.908;2022-09-02T15:25:12;25.96;72.31
71039;SHT30;58692;43.212;27.908;2022-09-02T15:27:38;25.93;72.63
71039;SHT30;58692;43.212;27.908;2022-09-02T15:30:05;25.65;73.73
71039;SHT30;58692;43.212;27.908;2022-09-02T15:32:31;25.66;74.14
71039;SHT30;58692;43.212;27.908;2022-09-02T15:34:56;25.71;74.28
71039;SHT30;58692;43.212;27.908;2022-09-02T15:37:22;25.73;74.16
71039;SHT30;58692;43.212;27.908;2022-09-02T15:39:48;25.76;73.87
71039;SHT30;58692;43.212;27.908;2022-09-02T15:42:14;25.84;73.38
71039;SHT30;58692;43.212;27.908;2022-09-02T15:44:42;26.00;72.50
71039;SHT30;58692;43.212;27.908;2022-09-02T15:47:08;26.07;71.84
71039;SHT30;58692;43.212;27.908;2022-09-02T15:49:33;26.16;71.31
71039;SHT30;58692;43.212;27.908;2022-09-02T15:51:59;25.94;71.60
71039;SHT30;58692;43.212;27.908;2022-09-02T15:54:24;25.98;71.28
71039;SHT30;58692;43.212;27.908;2022-09-02T15:56:55;26.02;71.21
71039;SHT30;58692;43.212;27.908;2022-09-02T15:59:21;25.86;71.73
71039;SHT30;58692;43.212;27.908;2022-09-02T16:01:49;25.93;71.99
71039;SHT30;58692;43.212;27.908;2022-09-02T16:04:16;26.01;71.81
71039;SHT30;58692;43.212;27.908;2022-09-02T16:06:45;25.86;72.21
71039;SHT30;58692;43.212;27.908;2022-09-02T16:09:13;25.76;72.73
71039;SHT30;58692;43.212;27.908;2022-09-02T16:11:41;25.66;73.39
71039;SHT30;58692;43.212;27.908;2022-09-02T16:14:08;25.37;74.61
71039;SHT30;58692;43.212;27.908;2022-09-02T16:16:35;25.16;73.94
71039;SHT30;58692;43.212;27.908;2022-09-02T16:19:01;25.08;73.25
71039;SHT30;58692;43.212;27.908;2022-09-02T16:21:27;24.96;73.48
71039;SHT30;58692;43.212;27.908;2022-09-02T16:23:53;25.06;73.04
71039;SHT30;58692;43.212;27.908;2022-09-02T16:28:56;24.84;73.42
71039;SHT30;58692;43.212;27.908;2022-09-02T16:31:24;24.86;73.28
71039;SHT30;58692;43.212;27.908;2022-09-02T16:33:53;24.95;72.89
71039;SHT30;58692;43.212;27.908;2022-09-02T16:36:19;25.06;70.91
71039;SHT30;58692;43.212;27.908;2022-09-02T16:38:44;24.98;71.45
71039;SHT30;58692;43.212;27.908;2022-09-02T16:41:26;25.04;71.52
71039;SHT30;58692;43.212;27.908;2022-09-02T16:43:55;25.16;72.01
71039;SHT30;58692;43.212;27.908;2022-09-02T16:46:22;25.18;72.65
71039;SHT30;58692;43.212;27.908;2022-09-02T16:48:47;25.12;73.57
71039;SHT30;58692;43.212;27.908;2022-09-02T16:51:13;25.05;75.04
71039;SHT30;58692;43.212;27.908;2022-09-02T16:53:40;24.82;76.60
71039;SHT30;58692;43.212;27.908;2022-09-02T16:56:10;24.89;77.19
71039;SHT30;58692;43.212;27.908;2022-09-02T16:58:36;24.76;77.23
71039;SHT30;58692;43.212;27.908;2022-09-02T17:01:06;24.57;77.13
71039;SHT30;58692;43.212;27.908;2022-09-02T17:03:32;24.31;77.40
71039;SHT30;58692;43.212;27.908;2022-09-02T17:05:58;24.24;77.86
71039;SHT30;58692;43.212;27.908;2022-09-02T17:08:24;24.28;77.78
71039;SHT30;58692;43.212;27.908;2022-09-02T17:10:49;24.27;77.56
71039;SHT30;58692;43.212;27.908;2022-09-02T17:13:15;24.40;77.26
71039;SHT30;58692;43.212;27.908;2022-09-02T17:15:41;24.34;77.56